sensor_id;sensor_type;location;lat;lon;timestamp;pressure;altitude;pressure_sealevel;temperature;humidity
62928;BME280;51070;52.236;-0.892;2024-01-15T00:02:09;100149.74;;;1.13;90.77
62928;BME280;51070;52.236;-0.892;2024-01-15T00:04:41;100152.64;;;1.14;90.84
62928;BME280;51070;52.236;-0.892;2024-01-15T00:07:07;100153.15;;;1.14;90.86
62928;BME280;51070;52.236;-0.892;2024-01-15T00:09:33;100160.08;;;1.15;91.10
62928;BME280;51070;52.236;-0.892;2024-01-15T00:11:59;100158.30;;;1.17;90.99
62928;BME280;51070;52.236;-0.892;2024-01-15T00:14:25;100159.51;;;1.17;90.93
62928;BME280;51070;52.236;-0.892;2024-01-15T00:16:51;100158.29;;;1.14;90.81
62928;BME280;51070;52.236;-0.892;2024-01-15T00:19:17;100160.11;;;1.14;90.98
62928;BME280;51070;52.236;-0.892;2024-01-15T00:21:44;100154.25;;;1.12;90.70
62928;BME280;51070;52.236;-0.892;2024-01-15T00:24:09;100153.24;;;1.10;90.95
62928;BME280;51070;52.236;-0.892;2024-01-15T00:26:35;100143.23;;;1.05;90.57
62928;BME280;51070;52.236;-0.892;2024-01-15T00:29:00;100143.57;;;0.99;90.70
62928;BME280;51070;52.236;-0.892;2024-01-15T00:31:26;100142.23;;;0.94;90.89
62928;BME280;51070;52.236;-0.892;2024-01-15T00:33:51;100136.38;;;0.90;91.23
62928;BME280;51070;52.236;-0.892;2024-01-15T00:36:17;100132.74;;;0.86;91.24
62928;BME280;51070;52.236;-0.892;2024-01-15T00:38:44;100130.74;;;0.84;91.17
62928;BME280;51070;52.236;-0.892;2024-01-15T00:41:10;100126.21;;;0.82;91.31
62928;BME280;51070;52.236;-0.892;2024-01-15T00:43:35;100121.23;;;0.78;91.41
62928;BME280;51070;52.236;-0.892;2024-01-15T00:46:02;100120.55;;;0.76;91.76
62928;BME280;51070;52.236;-0.892;2024-01-15T00:48:28;100119.50;;;0.75;91.72
62928;BME280;51070;52.236;-0.892;2024-01-15T00:50:53;100123.93;;;0.75;92.04
62928;BME280;51070;52.236;-0.892;2024-01-15T00:53:20;100121.95;;;0.73;92.08
62928;BME280;51070;52.236;-0.892;2024-01-15T00:55:48;100121.34;;;0.72;91.96
62928;BME280;51070;52.236;-0.892;2024-01-15T00:58:13;100118.71;;;0.71;91.99
62928;BME280;51070;52.236;-0.892;2024-01-15T01:00:39;100119.02;;;0.70;92.29
62928;BME280;51070;52.236;-0.892;2024-01-15T01:03:04;100119.35;;;0.67;92.12
62928;BME280;51070;52.236;-0.892;2024-01-15T01:05:30;100123.77;;;0.65;92.25
62928;BME280;51070;52.236;-0.892;2024-01-15T01:07:55;100124.16;;;0.63;92.55
62928;BME280;51070;52.236;-0.892;2024-01-15T01:10:21;100118.37;;;0.60;91.98
62928;BME280;51070;52.236;-0.892;2024-01-15T01:12:46;100117.45;;;0.56;91.79
62928;BME280;51070;52.236;-0.892;2024-01-15T01:15:11;100117.77;;;0.53;92.16
62928;BME280;51070;52.236;-0.892;2024-01-15T01:17:37;100116.71;;;0.50;91.65
62928;BME280;51070;52.236;-0.892;2024-01-15T01:20:03;100120.88;;;0.48;92.02
62928;BME280;51070;52.236;-0.892;2024-01-15T01:22:30;100121.11;;;0.47;92.19
62928;BME280;51070;52.236;-0.892;2024-01-15T01:24:55;100121.21;;;0.46;92.11
62928;BME280;51070;52.236;-0.892;2024-01-15T01:27:21;100117.66;;;0.46;92.36
62928;BME280;51070;52.236;-0.892;2024-01-15T01:29:46;100117.41;;;0.47;92.18
62928;BME280;51070;52.236;-0.892;2024-01-15T01:32:12;100115.30;;;0.49;92.13
62928;BME280;51070;52.236;-0.892;2024-01-15T01:34:41;100113.88;;;0.51;92.01
62928;BME280;51070;52.236;-0.892;2024-01-15T01:37:10;100111.17;;;0.51;91.47
62928;BME280;51070;52.236;-0.892;2024-01-15T01:39:38;100112.56;;;0.51;91.77
62928;BME280;51070;52.236;-0.892;2024-01-15T01:42:04;100107.00;;;0.52;91.54
62928;BME280;51070;52.236;-0.892;2024-01-15T01:44:30;100107.95;;;0.51;91.27
62928;BME280;51070;52.236;-0.892;2024-01-15T01:46:56;100103.13;;;0.50;90.97
62928;BME280;51070;52.236;-0.892;2024-01-15T01:49:23;100099.18;;;0.49;90.71
62928;BME280;51070;52.236;-0.892;2024-01-15T01:51:49;100101.02;;;0.46;90.83
62928;BME280;51070;52.236;-0.892;2024-01-15T01:54:15;100099.29;;;0.43;90.92
62928;BME280;51070;52.236;-0.892;2024-01-15T01:56:41;100099.23;;;0.39;91.28
62928;BME280;51070;52.236;-0.892;2024-01-15T01:59:08;100096.00;;;0.36;90.78
62928;BME280;51070;52.236;-0.892;2024-01-15T02:01:35;100097.50;;;0.33;91.24
62928;BME280;51070;52.236;-0.892;2024-01-15T02:04:01;100098.30;;;0.30;91.08
62928;BME280;51070;52.236;-0.892;2024-01-15T02:06:26;100097.88;;;0.25;91.06
62928;BME280;51070;52.236;-0.892;2024-01-15T02:08:53;100096.83;;;0.22;91.42
62928;BME280;51070;52.236;-0.892;2024-01-15T02:11:18;100093.38;;;0.21;91.45
62928;BME280;51070;52.236;-0.892;2024-01-15T02:13:44;100090.23;;;0.20;91.41
62928;BME280;51070;52.236;-0.892;2024-01-15T02:16:09;100088.83;;;0.19;91.58
62928;BME280;51070;52.236;-0.892;2024-01-15T02:18:45;100087.27;;;0.19;91.73
62928;BME280;51070;52.236;-0.892;2024-01-15T02:21:12;100087.68;;;0.20;91.61
62928;BME280;51070;52.236;-0.892;2024-01-15T02:23:38;100091.13;;;0.21;92.07
62928;BME280;51070;52.236;-0.892;2024-01-15T02:26:07;100092.63;;;0.23;92.26
62928;BME280;51070;52.236;-0.892;2024-01-15T02:28:33;100091.34;;;0.24;92.10
62928;BME280;51070;52.236;-0.892;2024-01-15T02:30:59;100095.14;;;0.25;91.84
62928;BME280;51070;52.236;-0.892;2024-01-15T02:33:25;100094.81;;;0.25;92.04
62928;BME280;51070;52.236;-0.892;2024-01-15T02:35:50;100091.87;;;0.24;91.91
62928;BME280;51070;52.236;-0.892;2024-01-15T02:38:16;100092.45;;;0.23;91.79
62928;BME280;51070;52.236;-0.892;2024-01-15T02:40:43;100090.58;;;0.20;91.72
62928;BME280;51070;52.236;-0.892;2024-01-15T02:43:09;100086.75;;;0.16;91.91
62928;BME280;51070;52.236;-0.892;2024-01-15T02:45:34;100084.65;;;0.13;92.12
62928;BME280;51070;52.236;-0.892;2024-01-15T02:48:00;100079.67;;;0.09;91.99
62928;BME280;51070;52.236;-0.892;2024-01-15T02:50:25;100077.60;;;0.06;92.43
62928;BME280;51070;52.236;-0.892;2024-01-15T02:52:51;100079.00;;;0.04;92.31
62928;BME280;51070;52.236;-0.892;2024-01-15T02:55:16;100076.15;;;0.02;92.49
62928;BME280;51070;52.236;-0.892;2024-01-15T02:57:41;100074.73;;;0.01;92.86
62928;BME280;51070;52.236;-0.892;2024-01-15T03:00:08;100077.65;;;0.02;92.96
62928;BME280;51070;52.236;-0.892;2024-01-15T03:02:37;100075.76;;;0.01;93.17
62928;BME280;51070;52.236;-0.892;2024-01-15T03:05:09;100076.95;;;0.01;92.87
62928;BME280;51070;52.236;-0.892;2024-01-15T03:07:35;100075.33;;;-0.01;92.46
62928;BME280;51070;52.236;-0.892;2024-01-15T03:10:00;100080.09;;;-0.01;92.98
62928;BME280;51070;52.236;-0.892;2024-01-15T03:12:26;100077.42;;;0.00;92.74
62928;BME280;51070;52.236;-0.892;2024-01-15T03:14:51;100075.29;;;0.02;93.06
62928;BME280;51070;52.236;-0.892;2024-01-15T03:17:17;100074.39;;;0.04;93.14
62928;BME280;51070;52.236;-0.892;2024-01-15T03:19:42;100070.88;;;0.04;93.31
62928;BME280;51070;52.236;-0.892;2024-01-15T03:22:07;100065.82;;;0.05;93.31
62928;BME280;51070;52.236;-0.892;2024-01-15T03:24:34;100067.43;;;0.04;92.97
62928;BME280;51070;52.236;-0.892;2024-01-15T03:26:59;100066.34;;;0.03;93.09
62928;BME280;51070;52.236;-0.892;2024-01-15T03:29:26;100067.05;;;0.00;93.11
62928;BME280;51070;52.236;-0.892;2024-01-15T03:31:51;100065.52;;;-0.03;93.25
62928;BME280;51070;52.236;-0.892;2024-01-15T03:34:17;100066.38;;;-0.05;93.16
62928;BME280;51070;52.236;-0.892;2024-01-15T03:36:42;100065.26;;;-0.07;93.39
62928;BME280;51070;52.236;-0.892;2024-01-15T03:39:07;100063.55;;;-0.09;93.46
62928;BME280;51070;52.236;-0.892;2024-01-15T03:41:33;100068.11;;;-0.12;93.65
62928;BME280;51070;52.236;-0.892;2024-01-15T03:43:58;100072.71;;;-0.15;93.61
62928;BME280;51070;52.236;-0.892;2024-01-15T03:46:24;100076.70;;;-0.16;93.87
62928;BME280;51070;52.236;-0.892;2024-01-15T03:48:50;100077.53;;;-0.17;94.08
62928;BME280;51070;52.236;-0.892;2024-01-15T03:51:17;100075.83;;;-0.17;94.34
62928;BME280;51070;52.236;-0.892;2024-01-15T03:53:43;100077.68;;;-0.17;94.75
62928;BME280;51070;52.236;-0.892;2024-01-15T03:56:08;100076.70;;;-0.16;94.49
62928;BME280;51070;52.236;-0.892;2024-01-15T03:58:33;100074.98;;;-0.17;94.83
62928;BME280;51070;52.236;-0.892;2024-01-15T04:00:59;100068.42;;;-0.15;94.95
62928;BME280;51070;52.236;-0.892;2024-01-15T04:03:24;100064.91;;;-0.15;94.96
62928;BME280;51070;52.236;-0.892;2024-01-15T04:05:50;100070.39;;;-0.14;95.30
62928;BME280;51070;52.236;-0.892;2024-01-15T04:08:15;100065.70;;;-0.13;95.15
62928;BME280;51070;52.236;-0.892;2024-01-15T04:10:40;100062.00;;;-0.15;95.01
62928;BME280;51070;52.236;-0.892;2024-01-15T04:13:06;100061.48;;;-0.18;94.91
62928;BME280;51070;52.236;-0.892;2024-01-15T04:15:32;100062.66;;;-0.20;95.00
62928;BME280;51070;52.236;-0.892;2024-01-15T04:17:57;100066.05;;;-0.21;95.67
62928;BME280;51070;52.236;-0.892;2024-01-15T04:20:23;100069.08;;;-0.21;95.35
62928;BME280;51070;52.236;-0.892;2024-01-15T04:22:48;100069.52;;;-0.22;95.28
62928;BME280;51070;52.236;-0.892;2024-01-15T04:25:13;100070.58;;;-0.24;95.45
62928;BME280;51070;52.236;-0.892;2024-01-15T04:27:39;100071.60;;;-0.27;95.29
62928;BME280;51070;52.236;-0.892;2024-01-15T04:30:05;100078.40;;;-0.29;95.50
62928;BME280;51070;52.236;-0.892;2024-01-15T04:32:30;100080.41;;;-0.32;95.50
62928;BME280;51070;52.236;-0.892;2024-01-15T04:34:56;100070.78;;;-0.34;95.53
62928;BME280;51070;52.236;-0.892;2024-01-15T04:37:21;100071.58;;;-0.35;95.69
62928;BME280;51070;52.236;-0.892;2024-01-15T04:39:47;100073.27;;;-0.35;95.73
62928;BME280;51070;52.236;-0.892;2024-01-15T04:42:12;100072.17;;;-0.36;95.43
62928;BME280;51070;52.236;-0.892;2024-01-15T04:44:37;100073.35;;;-0.36;95.54
62928;BME280;51070;52.236;-0.892;2024-01-15T04:47:03;100069.42;;;-0.36;95.43
62928;BME280;51070;52.236;-0.892;2024-01-15T04:49:28;100069.48;;;-0.36;95.37
62928;BME280;51070;52.236;-0.892;2024-01-15T04:51:54;100068.70;;;-0.35;95.23
62928;BME280;51070;52.236;-0.892;2024-01-15T04:54:20;100075.19;;;-0.34;95.14
62928;BME280;51070;52.236;-0.892;2024-01-15T04:56:46;100075.54;;;-0.34;94.84
62928;BME280;51070;52.236;-0.892;2024-01-15T04:59:11;100072.94;;;-0.32;94.97
62928;BME280;51070;52.236;-0.892;2024-01-15T05:01:36;100071.83;;;-0.31;94.72
62928;BME280;51070;52.236;-0.892;2024-01-15T05:04:02;100076.05;;;-0.31;94.36
62928;BME280;51070;52.236;-0.892;2024-01-15T05:06:27;100076.52;;;-0.32;94.04
62928;BME280;51070;52.236;-0.892;2024-01-15T05:08:53;100076.70;;;-0.34;93.60
62928;BME280;51070;52.236;-0.892;2024-01-15T05:11:18;100077.17;;;-0.37;93.38
62928;BME280;51070;52.236;-0.892;2024-01-15T05:13:44;100072.98;;;-0.42;93.08
62928;BME280;51070;52.236;-0.892;2024-01-15T05:16:09;100069.73;;;-0.45;92.91
62928;BME280;51070;52.236;-0.892;2024-01-15T05:18:34;100073.30;;;-0.48;92.56
62928;BME280;51070;52.236;-0.892;2024-01-15T05:21:03;100073.27;;;-0.51;92.63
62928;BME280;51070;52.236;-0.892;2024-01-15T05:23:29;100074.77;;;-0.54;92.16
62928;BME280;51070;52.236;-0.892;2024-01-15T05:25:54;100077.24;;;-0.57;91.98
62928;BME280;51070;52.236;-0.892;2024-01-15T05:28:19;100081.99;;;-0.60;91.72
62928;BME280;51070;52.236;-0.892;2024-01-15T05:30:45;100082.38;;;-0.62;91.63
62928;BME280;51070;52.236;-0.892;2024-01-15T05:33:10;100081.14;;;-0.63;91.31
62928;BME280;51070;52.236;-0.892;2024-01-15T05:35:36;100081.80;;;-0.63;91.33
62928;BME280;51070;52.236;-0.892;2024-01-15T05:38:01;100072.86;;;-0.62;90.89
62928;BME280;51070;52.236;-0.892;2024-01-15T05:40:28;100070.52;;;-0.61;90.63
62928;BME280;51070;52.236;-0.892;2024-01-15T05:42:53;100076.80;;;-0.61;90.66
62928;BME280;51070;52.236;-0.892;2024-01-15T05:45:18;100075.45;;;-0.61;90.29
62928;BME280;51070;52.236;-0.892;2024-01-15T05:47:44;100082.30;;;-0.61;90.11
62928;BME280;51070;52.236;-0.892;2024-01-15T05:50:10;100079.35;;;-0.61;89.87
62928;BME280;51070;52.236;-0.892;2024-01-15T05:52:35;100082.13;;;-0.63;89.26
62928;BME280;51070;52.236;-0.892;2024-01-15T05:55:01;100078.09;;;-0.65;89.07
62928;BME280;51070;52.236;-0.892;2024-01-15T05:57:27;100070.20;;;-0.69;88.75
62928;BME280;51070;52.236;-0.892;2024-01-15T05:59:53;100066.64;;;-0.71;88.73
62928;BME280;51070;52.236;-0.892;2024-01-15T06:02:19;100063.81;;;-0.73;88.42
62928;BME280;51070;52.236;-0.892;2024-01-15T06:04:44;100063.30;;;-0.75;88.17
62928;BME280;51070;52.236;-0.892;2024-01-15T06:07:10;100056.88;;;-0.78;88.01
62928;BME280;51070;52.236;-0.892;2024-01-15T06:09:35;100059.09;;;-0.80;87.77
62928;BME280;51070;52.236;-0.892;2024-01-15T06:12:01;100067.05;;;-0.83;87.56
62928;BME280;51070;52.236;-0.892;2024-01-15T06:14:26;100064.49;;;-0.86;87.30
62928;BME280;51070;52.236;-0.892;2024-01-15T06:16:52;100064.38;;;-0.88;87.24
62928;BME280;51070;52.236;-0.892;2024-01-15T06:19:17;100061.70;;;-0.89;87.24
62928;BME280;51070;52.236;-0.892;2024-01-15T06:21:43;100053.81;;;-0.91;87.25
62928;BME280;51070;52.236;-0.892;2024-01-15T06:24:08;100055.18;;;-0.91;87.00
62928;BME280;51070;52.236;-0.892;2024-01-15T06:26:35;100055.58;;;-0.90;86.90
62928;BME280;51070;52.236;-0.892;2024-01-15T06:29:01;100052.36;;;-0.90;86.96
62928;BME280;51070;52.236;-0.892;2024-01-15T06:31:28;100050.91;;;-0.89;87.08
62928;BME280;51070;52.236;-0.892;2024-01-15T06:33:55;100057.36;;;-0.86;87.20
62928;BME280;51070;52.236;-0.892;2024-01-15T06:36:20;100064.73;;;-0.85;86.80
62928;BME280;51070;52.236;-0.892;2024-01-15T06:38:46;100065.23;;;-0.85;86.45
62928;BME280;51070;52.236;-0.892;2024-01-15T06:41:12;100067.45;;;-0.85;86.31
62928;BME280;51070;52.236;-0.892;2024-01-15T06:43:37;100059.66;;;-0.84;86.32
62928;BME280;51070;52.236;-0.892;2024-01-15T06:46:03;100060.95;;;-0.86;86.36
62928;BME280;51070;52.236;-0.892;2024-01-15T06:48:28;100063.74;;;-0.87;86.17
62928;BME280;51070;52.236;-0.892;2024-01-15T06:50:54;100059.56;;;-0.89;86.08
62928;BME280;51070;52.236;-0.892;2024-01-15T06:53:19;100060.09;;;-0.91;86.06
62928;BME280;51070;52.236;-0.892;2024-01-15T06:55:46;100067.42;;;-0.93;86.01
62928;BME280;51070;52.236;-0.892;2024-01-15T06:58:11;100069.98;;;-0.95;85.94
62928;BME280;51070;52.236;-0.892;2024-01-15T07:00:37;100073.94;;;-0.97;85.95
62928;BME280;51070;52.236;-0.892;2024-01-15T07:03:03;100073.23;;;-1.00;85.73
62928;BME280;51070;52.236;-0.892;2024-01-15T07:05:29;100073.56;;;-1.02;85.71
62928;BME280;51070;52.236;-0.892;2024-01-15T07:07:56;100080.15;;;-1.03;85.90
62928;BME280;51070;52.236;-0.892;2024-01-15T07:10:21;100081.59;;;-1.04;85.72
62928;BME280;51070;52.236;-0.892;2024-01-15T07:12:47;100086.20;;;-1.03;85.86
62928;BME280;51070;52.236;-0.892;2024-01-15T07:15:13;100086.10;;;-1.03;85.96
62928;BME280;51070;52.236;-0.892;2024-01-15T07:17:38;100089.50;;;-1.00;86.29
62928;BME280;51070;52.236;-0.892;2024-01-15T07:20:08;100088.34;;;-0.97;86.20
62928;BME280;51070;52.236;-0.892;2024-01-15T07:22:38;100096.89;;;-0.96;86.01
62928;BME280;51070;52.236;-0.892;2024-01-15T07:25:04;100100.48;;;-0.96;86.02
62928;BME280;51070;52.236;-0.892;2024-01-15T07:27:31;100099.73;;;-0.96;85.97
62928;BME280;51070;52.236;-0.892;2024-01-15T07:29:57;100102.08;;;-0.97;86.08
62928;BME280;51070;52.236;-0.892;2024-01-15T07:32:22;100096.77;;;-0.98;86.24
62928;BME280;51070;52.236;-0.892;2024-01-15T07:34:48;100099.05;;;-0.99;86.32
62928;BME280;51070;52.236;-0.892;2024-01-15T07:37:14;100105.88;;;-1.01;86.42
62928;BME280;51070;52.236;-0.892;2024-01-15T07:39:39;100105.95;;;-1.02;86.27
62928;BME280;51070;52.236;-0.892;2024-01-15T07:42:05;100110.81;;;-1.03;86.57
62928;BME280;51070;52.236;-0.892;2024-01-15T07:44:31;100112.88;;;-1.05;86.68
62928;BME280;51070;52.236;-0.892;2024-01-15T07:46:56;100116.48;;;-1.07;86.83
62928;BME280;51070;52.236;-0.892;2024-01-15T07:49:22;100119.67;;;-1.07;86.91
62928;BME280;51070;52.236;-0.892;2024-01-15T07:51:49;100127.84;;;-1.07;87.32
62928;BME280;51070;52.236;-0.892;2024-01-15T07:54:14;100128.59;;;-1.06;87.39
62928;BME280;51070;52.236;-0.892;2024-01-15T07:59:20;100135.73;;;-1.03;87.34
62928;BME280;51070;52.236;-0.892;2024-01-15T08:01:45;100141.80;;;-1.01;87.27
62928;BME280;51070;52.236;-0.892;2024-01-15T08:04:12;100145.52;;;-0.99;87.43
62928;BME280;51070;52.236;-0.892;2024-01-15T08:06:38;100153.30;;;-0.97;87.34
62928;BME280;51070;52.236;-0.892;2024-01-15T08:09:04;100152.02;;;-0.96;87.19
62928;BME280;51070;52.236;-0.892;2024-01-15T08:11:30;100145.30;;;-0.95;87.22
62928;BME280;51070;52.236;-0.892;2024-01-15T08:13:55;100148.33;;;-0.95;87.05
62928;BME280;51070;52.236;-0.892;2024-01-15T08:16:21;100141.83;;;-0.96;87.05
62928;BME280;51070;52.236;-0.892;2024-01-15T08:18:47;100133.30;;;-0.97;87.07
62928;BME280;51070;52.236;-0.892;2024-01-15T08:21:13;100126.43;;;-0.98;87.13
62928;BME280;51070;52.236;-0.892;2024-01-15T08:23:38;100126.29;;;-1.00;87.11
62928;BME280;51070;52.236;-0.892;2024-01-15T08:26:04;100134.02;;;-1.01;87.14
62928;BME280;51070;52.236;-0.892;2024-01-15T08:28:30;100136.48;;;-1.02;87.39
62928;BME280;51070;52.236;-0.892;2024-01-15T08:30:56;100142.05;;;-1.02;87.48
62928;BME280;51070;52.236;-0.892;2024-01-15T08:33:21;100141.23;;;-1.02;87.71
62928;BME280;51070;52.236;-0.892;2024-01-15T08:35:47;100142.30;;;-1.01;87.74
62928;BME280;51070;52.236;-0.892;2024-01-15T08:38:13;100146.72;;;-0.99;87.84
62928;BME280;51070;52.236;-0.892;2024-01-15T08:40:38;100154.34;;;-0.97;87.93
62928;BME280;51070;52.236;-0.892;2024-01-15T08:43:03;100161.01;;;-0.93;87.70
62928;BME280;51070;52.236;-0.892;2024-01-15T08:45:29;100163.61;;;-0.90;87.83
62928;BME280;51070;52.236;-0.892;2024-01-15T08:47:54;100168.11;;;-0.86;87.68
62928;BME280;51070;52.236;-0.892;2024-01-15T08:50:20;100170.86;;;-0.83;87.74
62928;BME280;51070;52.236;-0.892;2024-01-15T08:52:45;100176.13;;;-0.81;88.13
62928;BME280;51070;52.236;-0.892;2024-01-15T08:55:12;100178.38;;;-0.80;87.92
62928;BME280;51070;52.236;-0.892;2024-01-15T08:57:38;100177.63;;;-0.78;88.10
62928;BME280;51070;52.236;-0.892;2024-01-15T09:00:04;100173.41;;;-0.78;88.03
62928;BME280;51070;52.236;-0.892;2024-01-15T09:02:34;100173.17;;;-0.79;88.16
62928;BME280;51070;52.236;-0.892;2024-01-15T09:05:00;100173.93;;;-0.80;88.23
62928;BME280;51070;52.236;-0.892;2024-01-15T09:07:26;100180.24;;;-0.80;88.39
62928;BME280;51070;52.236;-0.892;2024-01-15T09:09:52;100185.14;;;-0.78;88.45
62928;BME280;51070;52.236;-0.892;2024-01-15T09:12:18;100190.39;;;-0.75;88.24
62928;BME280;51070;52.236;-0.892;2024-01-15T09:14:46;100194.97;;;-0.73;88.04
62928;BME280;51070;52.236;-0.892;2024-01-15T09:17:12;100199.78;;;-0.70;87.94
62928;BME280;51070;52.236;-0.892;2024-01-15T09:19:38;100202.92;;;-0.66;88.01
62928;BME280;51070;52.236;-0.892;2024-01-15T09:22:05;100208.60;;;-0.63;87.60
62928;BME280;51070;52.236;-0.892;2024-01-15T09:24:30;100212.50;;;-0.60;87.32
62928;BME280;51070;52.236;-0.892;2024-01-15T09:26:56;100213.44;;;-0.59;86.98
62928;BME280;51070;52.236;-0.892;2024-01-15T09:29:21;100215.18;;;-0.58;86.63
62928;BME280;51070;52.236;-0.892;2024-01-15T09:31:49;100220.70;;;-0.57;86.49
62928;BME280;51070;52.236;-0.892;2024-01-15T09:34:18;100226.20;;;-0.56;86.41
62928;BME280;51070;52.236;-0.892;2024-01-15T09:36:44;100242.54;;;-0.55;86.10
62928;BME280;51070;52.236;-0.892;2024-01-15T09:39:09;100240.36;;;-0.55;85.83
62928;BME280;51070;52.236;-0.892;2024-01-15T09:41:36;100244.41;;;-0.52;85.80
62928;BME280;51070;52.236;-0.892;2024-01-15T09:44:03;100246.80;;;-0.50;85.48
62928;BME280;51070;52.236;-0.892;2024-01-15T09:46:31;100252.51;;;-0.46;85.47
62928;BME280;51070;52.236;-0.892;2024-01-15T09:48:57;100259.55;;;-0.42;85.39
62928;BME280;51070;52.236;-0.892;2024-01-15T09:51:24;100261.84;;;-0.38;85.40
62928;BME280;51070;52.236;-0.892;2024-01-15T09:53:50;100266.61;;;-0.35;84.95
62928;BME280;51070;52.236;-0.892;2024-01-15T09:56:15;100263.38;;;-0.33;84.82
62928;BME280;51070;52.236;-0.892;2024-01-15T09:58:41;100263.21;;;-0.30;84.83
62928;BME280;51070;52.236;-0.892;2024-01-15T10:01:08;100266.42;;;-0.28;84.84
62928;BME280;51070;52.236;-0.892;2024-01-15T10:03:34;100262.98;;;-0.27;84.77
62928;BME280;51070;52.236;-0.892;2024-01-15T10:05:59;100261.23;;;-0.24;84.48
62928;BME280;51070;52.236;-0.892;2024-01-15T10:08:25;100258.83;;;-0.23;84.01
62928;BME280;51070;52.236;-0.892;2024-01-15T10:10:51;100259.43;;;-0.21;82.70
62928;BME280;51070;52.236;-0.892;2024-01-15T10:13:17;100259.96;;;-0.18;82.36
62928;BME280;51070;52.236;-0.892;2024-01-15T10:15:46;100259.20;;;-0.15;82.33
62928;BME280;51070;52.236;-0.892;2024-01-15T10:18:12;100261.70;;;-0.10;82.44
62928;BME280;51070;52.236;-0.892;2024-01-15T10:20:39;100256.95;;;-0.05;82.13
62928;BME280;51070;52.236;-0.892;2024-01-15T10:23:05;100259.65;;;-0.00;81.76
62928;BME280;51070;52.236;-0.892;2024-01-15T10:25:30;100256.38;;;0.04;81.36
62928;BME280;51070;52.236;-0.892;2024-01-15T10:28:03;100258.13;;;0.08;80.71
62928;BME280;51070;52.236;-0.892;2024-01-15T10:30:29;100261.91;;;0.11;80.63
62928;BME280;51070;52.236;-0.892;2024-01-15T10:33:03;100257.57;;;0.15;80.18
62928;BME280;51070;52.236;-0.892;2024-01-15T10:35:31;100258.16;;;0.18;79.85
62928;BME280;51070;52.236;-0.892;2024-01-15T10:37:57;100259.44;;;0.22;79.67
62928;BME280;51070;52.236;-0.892;2024-01-15T10:40:23;100265.88;;;0.32;79.08
62928;BME280;51070;52.236;-0.892;2024-01-15T10:42:48;100267.67;;;0.70;77.55
62928;BME280;51070;52.236;-0.892;2024-01-15T10:45:14;100269.96;;;1.01;76.93
62928;BME280;51070;52.236;-0.892;2024-01-15T10:47:40;100271.05;;;1.27;76.34
62928;BME280;51070;52.236;-0.892;2024-01-15T10:50:07;100273.95;;;1.49;75.71
62928;BME280;51070;52.236;-0.892;2024-01-15T10:52:37;100274.83;;;1.66;74.85
62928;BME280;51070;52.236;-0.892;2024-01-15T10:55:04;100277.44;;;1.81;73.69
62928;BME280;51070;52.236;-0.892;2024-01-15T10:57:30;100277.73;;;1.97;73.77
62928;BME280;51070;52.236;-0.892;2024-01-15T10:59:56;100277.21;;;2.15;72.16
62928;BME280;51070;52.236;-0.892;2024-01-15T11:02:21;100278.11;;;2.30;71.59
62928;BME280;51070;52.236;-0.892;2024-01-15T11:04:48;100280.38;;;2.49;71.27
62928;BME280;51070;52.236;-0.892;2024-01-15T11:07:13;100277.34;;;2.65;70.51
62928;BME280;51070;52.236;-0.892;2024-01-15T11:09:39;100283.96;;;2.79;69.74
62928;BME280;51070;52.236;-0.892;2024-01-15T11:12:13;100288.91;;;2.88;67.51
62928;BME280;51070;52.236;-0.892;2024-01-15T11:14:45;100287.05;;;2.95;68.14
62928;BME280;51070;52.236;-0.892;2024-01-15T11:17:12;100285.66;;;3.04;67.81
62928;BME280;51070;52.236;-0.892;2024-01-15T11:19:45;100284.53;;;3.08;66.87
62928;BME280;51070;52.236;-0.892;2024-01-15T11:24:55;100284.96;;;3.22;67.20
62928;BME280;51070;52.236;-0.892;2024-01-15T11:27:44;100292.80;;;3.25;65.68
62928;BME280;51070;52.236;-0.892;2024-01-15T11:30:11;100285.39;;;3.23;65.50
62928;BME280;51070;52.236;-0.892;2024-01-15T11:32:38;100287.01;;;3.25;65.33
62928;BME280;51070;52.236;-0.892;2024-01-15T11:35:08;100283.05;;;3.25;64.63
62928;BME280;51070;52.236;-0.892;2024-01-15T11:43:02;100292.31;;;3.34;65.12
62928;BME280;51070;52.236;-0.892;2024-01-15T11:45:30;100289.91;;;3.34;63.93
62928;BME280;51070;52.236;-0.892;2024-01-15T11:48:11;100286.59;;;3.32;64.13
62928;BME280;51070;52.236;-0.892;2024-01-15T11:50:40;100290.95;;;3.34;63.94
62928;BME280;51070;52.236;-0.892;2024-01-15T11:53:15;100296.40;;;3.34;63.69
62928;BME280;51070;52.236;-0.892;2024-01-15T11:55:44;100302.02;;;3.31;62.90
62928;BME280;51070;52.236;-0.892;2024-01-15T11:58:10;100301.98;;;3.30;63.54
62928;BME280;51070;52.236;-0.892;2024-01-15T12:00:47;100295.95;;;3.35;63.39
62928;BME280;51070;52.236;-0.892;2024-01-15T12:03:14;100294.98;;;3.40;63.09
62928;BME280;51070;52.236;-0.892;2024-01-15T12:05:40;100296.13;;;3.42;63.36
62928;BME280;51070;52.236;-0.892;2024-01-15T12:08:07;100301.42;;;3.45;62.82
62928;BME280;51070;52.236;-0.892;2024-01-15T12:10:37;100300.09;;;3.46;62.41
62928;BME280;51070;52.236;-0.892;2024-01-15T12:13:14;100297.38;;;3.46;62.23
62928;BME280;51070;52.236;-0.892;2024-01-15T12:15:44;100305.38;;;3.46;61.86
62928;BME280;51070;52.236;-0.892;2024-01-15T12:18:11;100306.17;;;3.45;62.03
62928;BME280;51070;52.236;-0.892;2024-01-15T12:20:37;100309.97;;;3.39;61.39
62928;BME280;51070;52.236;-0.892;2024-01-15T12:23:03;100312.00;;;3.35;61.38
62928;BME280;51070;52.236;-0.892;2024-01-15T12:25:30;100309.57;;;3.34;61.29
62928;BME280;51070;52.236;-0.892;2024-01-15T12:27:56;100308.57;;;3.35;61.67
62928;BME280;51070;52.236;-0.892;2024-01-15T12:30:22;100306.05;;;3.39;61.88
62928;BME280;51070;52.236;-0.892;2024-01-15T12:32:48;100304.26;;;3.41;61.59
62928;BME280;51070;52.236;-0.892;2024-01-15T12:35:14;100305.97;;;3.44;61.95
62928;BME280;51070;52.236;-0.892;2024-01-15T12:37:43;100304.02;;;3.46;61.64
62928;BME280;51070;52.236;-0.892;2024-01-15T12:40:12;100304.81;;;3.42;60.71
62928;BME280;51070;52.236;-0.892;2024-01-15T12:42:41;100303.94;;;3.38;60.50
62928;BME280;51070;52.236;-0.892;2024-01-15T12:45:11;100296.85;;;3.33;60.36
62928;BME280;51070;52.236;-0.892;2024-01-15T12:47:37;100299.90;;;3.33;60.46
62928;BME280;51070;52.236;-0.892;2024-01-15T12:50:09;100299.30;;;3.31;60.19
62928;BME280;51070;52.236;-0.892;2024-01-15T12:52:35;100301.81;;;3.30;60.03